Mt Bomar Mars — 9HCM9 — position and weather

sailwx.info

Track history (hours):
 
Tides and Currents Weather Stations Pressure Air Temp Water Temp Dewpoint Dewpoint Depression Visibility Wind Speed Wind Dir Waves Ship Positions

Mt Bomar Mars

Last reported at 2017-Apr-29 08:25 UTC. Time now 2017-Apr-29 09:20 UTC.
Position N 52°46' E 002°11'.

Length 107 m; draft 5.2 m.

Type: Ship. MMSI: 256784000.

Date/timePositionNaut miles runAvg speedWind from/ knotsBaromVisibWave heightAir tempDewpointWater temp
2017-Apr-29 08:25N 52°46' E 002°11'612.4
2017-Apr-29 07:58N 52°50' E 002°05'512.0
2017-Apr-29 07:30N 52°54' E 001°58'611.8
2017-Apr-29 07:01N 52°57' E 001°50'611.2
2017-Apr-29 06:31N 53°01' E 001°43'510.6
2017-Apr-29 06:00N 53°03' E 001°35'510.1
2017-Apr-29 05:30N 53°06' E 001°28'5 9.5
2017-Apr-29 05:01N 53°09' E 001°22'5 9.3
2017-Apr-29 04:30N 53°12' E 001°16'5 9.1
2017-Apr-29 04:00N 53°15' E 001°10'4 8.9
2017-Apr-29 03:30N 53°18' E 001°05'4 8.8
2017-Apr-29 03:00N 53°21' E 000°59'6 8.6
2017-Apr-29 02:16N 53°24' E 000°50'30 9.8
2017-Apr-28 23:09N 53°35' E 000°02'214.2
2017-Apr-28 23:00N 53°35' W 000°01'612.8
2017-Apr-28 22:30N 53°38' W 000°11'0 0.7
2017-Apr-28 21:57N 53°38' W 000°12'0 0.1
2017-Apr-28 21:21N 53°38' W 000°12'0 0.0
2017-Apr-28 20:54N 53°38' W 000°12'0 0.0
2017-Apr-28 20:27N 53°38' W 000°12'0 0.0
2017-Apr-28 20:00N 53°38' W 000°12'0 0.0
2017-Apr-28 19:30N 53°38' W 000°12'0 0.0
2017-Apr-28 18:51N 53°38' W 000°12'0 0.0
2017-Apr-28 18:24N 53°38' W 000°12'0 0.0
2017-Apr-28 17:54N 53°38' W 000°12'0 0.0
2017-Apr-28 17:09N 53°38' W 000°12'0 0.0
2017-Apr-28 16:45N 53°38' W 000°12'0 0.0
2017-Apr-28 16:15N 53°38' W 000°12'0 0.0
2017-Apr-28 16:00N 53°38' W 000°12'0 0.0
2017-Apr-28 15:06N 53°38' W 000°12'0 0.0
2017-Apr-28 14:57N 53°38' W 000°12'0 0.0
2017-Apr-28 14:27N 53°38' W 000°12'0 0.0
2017-Apr-28 05:08N 53°38' W 000°12'0 0.4
2017-Apr-28 04:59N 53°38' W 000°12'0 0.6
2017-Apr-28 04:30N 53°38' W 000°11'2 3.9
2017-Apr-28 04:00N 53°38' W 000°08'612.3
2017-Apr-28 03:30N 53°35' E 000°02'42 6.7
2017-Apr-27 21:11N 53°18' E 001°07'2 8.7
2017-Apr-27 20:57N 53°17' E 001°09'4 8.4
2017-Apr-27 20:30N 53°15' E 001°14'4 7.9
2017-Apr-27 20:00N 53°12' E 001°19'4 7.8
2017-Apr-27 19:30N 53°10' E 001°24'4 7.3
2017-Apr-27 19:00N 53°07' E 001°28'4 7.2
2017-Apr-27 18:30N 53°05' E 001°33'4 7.5
2017-Apr-27 18:00N 53°02' E 001°38'4 7.9
2017-Apr-27 17:30N 53°01' E 001°44'4 8.6
2017-Apr-27 17:00N 52°59' E 001°50'5 9.5
2017-Apr-27 16:30N 52°57' E 001°57'510.2
2017-Apr-27 16:00N 52°54' E 002°04'7610.2
2017-Apr-27 08:31N 51°46' E 003°01'710.1
2017-Apr-27 07:48N 51°44' E 003°13'2 6.9
2017-Apr-27 07:30N 51°43' E 003°15'5 9.3
2017-Apr-27 07:00N 51°39' E 003°20'510.0
2017-Apr-27 06:31N 51°35' E 003°24'510.0
2017-Apr-27 06:00N 51°31' E 003°27'611.2
2017-Apr-27 05:30N 51°27' E 003°34'610.9
2017-Apr-27 04:56N 51°24' E 003°43'512.0
2017-Apr-27 04:30N 51°21' E 003°49'1 1.7
2017-Apr-27 03:57N 51°20' E 003°49'1 1.9
2017-Apr-27 03:30N 51°19' E 003°50'2 0.1
2017-Apr-26 00:33N 51°17' E 003°51'0 0.0
2017-Apr-26 00:30N 51°17' E 003°51'1 2.3
2017-Apr-26 00:00N 51°18' E 003°50'2 4.3
2017-Apr-25 23:30N 51°20' E 003°49'1 1.4
2017-Apr-25 23:00N 51°20' E 003°49'4 5.6
2017-Apr-25 22:22N 51°22' E 003°44'2 6.4
2017-Apr-25 21:59N 51°24' E 003°41'3 6.1
2017-Apr-25 21:30N 51°25' E 003°37'4 7.4
2017-Apr-25 21:00N 51°27' E 003°32'511.0
2017-Apr-25 20:30N 51°31' E 003°26'611.2
2017-Apr-25 19:59N 51°36' E 003°22'10 6.9
2017-Apr-25 18:31N 51°46' E 003°18'0 6.3
2017-Apr-25 18:30N 51°46' E 003°18'0 0.2
2017-Apr-25 17:37N 51°46' E 003°18'0 0.0
2017-Apr-25 16:16N 51°46' E 003°19'0 0.1
2017-Apr-25 15:49N 51°46' E 003°19'0 0.2
2017-Apr-25 15:25N 51°46' E 003°19'0 0.0
2017-Apr-25 14:58N 51°46' E 003°19'0 0.0
2017-Apr-25 13:58N 51°46' E 003°19'0 0.0
2017-Apr-25 13:28N 51°46' E 003°19'0 0.1
2017-Apr-25 12:59N 51°46' E 003°19'0 0.2
2017-Apr-25 12:28N 51°46' E 003°19'1 1.3
2017-Apr-25 11:47N 51°47' E 003°19'1 4.5
2017-Apr-25 11:30N 51°48' E 003°18'0 0.8
2017-Apr-25 10:56N 51°49' E 003°18'1 1.4
2017-Apr-25 10:15N 51°48' E 003°18'0 0.5
2017-Apr-25 09:58N 51°48' E 003°18'0 0.4
2017-Apr-25 09:30N 51°48' E 003°18'0 0.9
2017-Apr-25 09:00N 51°47' E 003°17'0 0.5
2017-Apr-25 08:29N 51°47' E 003°18'0 0.6
2017-Apr-25 07:59N 51°47' E 003°18'1 1.3
2017-Apr-25 07:30N 51°47' E 003°18'1 0.9
2017-Apr-25 06:55N 51°46' E 003°18'0 0.1
2017-Apr-25 04:38N 51°46' E 003°19'0 0.1
2017-Apr-25 04:20N 51°46' E 003°19'0 0.0
2017-Apr-25 03:56N 51°46' E 003°19'0 0.0
2017-Apr-25 03:29N 51°46' E 003°19'0 0.0
2017-Apr-25 02:56N 51°46' E 003°19'0 0.1
2017-Apr-25 02:29N 51°46' E 003°19'0 0.0
2017-Apr-25 01:59N 51°46' E 003°19'0 0.0
2017-Apr-25 01:26N 51°46' E 003°19'0 0.0
2017-Apr-25 00:59N 51°46' E 003°19'0 0.0
2017-Apr-24 22:06N 51°46' E 003°19'0 0.0
2017-Apr-24 21:44N 51°46' E 003°19'0 0.2
2017-Apr-24 21:23N 51°46' E 003°18'0 0.1
2017-Apr-24 20:53N 51°46' E 003°18'0 0.0
2017-Apr-24 20:29N 51°46' E 003°18'0 0.0
2017-Apr-24 19:56N 51°46' E 003°18'0 0.0
2017-Apr-24 18:41N 51°46' E 003°18'0 0.1
2017-Apr-24 18:26N 51°46' E 003°18'0 0.2
2017-Apr-24 17:56N 51°46' E 003°18'0 0.1
2017-Apr-24 17:29N 51°46' E 003°18'0 0.1
2017-Apr-24 16:59N 51°46' E 003°19'0 0.1
2017-Apr-24 16:28N 51°46' E 003°19'0 0.0
2017-Apr-24 16:00N 51°46' E 003°19'0 0.0
2017-Apr-24 15:29N 51°46' E 003°19'0 0.0
2017-Apr-24 14:53N 51°46' E 003°19'0 0.0
2017-Apr-24 14:30N 51°46' E 003°19'0 0.0
2017-Apr-24 13:29N 51°46' E 003°19'0 0.0
2017-Apr-24 13:00N 51°46' E 003°19'0 0.0
2017-Apr-24 12:27N 51°46' E 003°19'1 1.1
2017-Apr-24 11:26N 51°47' E 003°17'73 9.9
2017-Apr-24 04:04N 52°46' E 002°10'111.8
2017-Apr-24 03:58N 52°47' E 002°08'511.4
2017-Apr-24 03:30N 52°51' E 002°03'510.9
2017-Apr-24 03:00N 52°55' E 001°56'510.7
2017-Apr-24 02:30N 52°58' E 001°48'510.4
2017-Apr-24 02:00N 53°00' E 001°41'5 9.9
2017-Apr-24 01:30N 53°03' E 001°34'5 9.6
2017-Apr-24 01:00N 53°06' E 001°28'5 9.3
2017-Apr-24 00:30N 53°09' E 001°22'5 9.2
2017-Apr-24 00:00N 53°12' E 001°16'5 9.2
2017-Apr-23 23:30N 53°15' E 001°10'5 9.2
2017-Apr-23 23:00N 53°18' E 001°04'5 9.0
2017-Apr-23 22:30N 53°21' E 000°58'3810.0
2017-Apr-23 18:41N 53°35' W 000°01'314.0
2017-Apr-23 18:30N 53°37' W 000°05'4 0.2
2017-Apr-23 01:04N 53°38' W 000°11'0 0.8
2017-Apr-23 00:56N 53°38' W 000°11'62 9.4
2017-Apr-22 18:18N 53°10' E 001°22'2 8.3
2017-Apr-22 18:00N 53°08' E 001°25'4 8.1
2017-Apr-22 17:31N 53°06' E 001°30'4 7.6
2017-Apr-22 17:00N 53°03' E 001°35'4 7.6
2017-Apr-22 16:31N 53°01' E 001°41'4 7.5
2017-Apr-22 16:00N 52°60' E 001°46'4 7.5
2017-Apr-22 15:30N 52°58' E 001°52'83 8.3
2017-Apr-22 05:31N 51°35' E 001°56'4 8.3
2017-Apr-22 05:01N 51°33' E 001°50'4 8.2
2017-Apr-22 04:30N 51°31' E 001°44'4 8.1
2017-Apr-22 04:01N 51°29' E 001°38'4 8.3
2017-Apr-22 03:30N 51°27' E 001°32'11 9.1
2017-Apr-22 02:17N 51°29' E 001°15'310.3
2017-Apr-22 02:01N 51°29' E 001°10'1510.8
2017-Apr-22 00:37N 51°29' E 000°46'111.8
2017-Apr-22 00:30N 51°30' E 000°44'611.9
2017-Apr-22 00:01N 51°30' E 000°34'510.5
2017-Apr-21 23:31N 51°28' E 000°27'5 9.1
2017-Apr-21 23:00N 51°27' E 000°20'4 7.7
2017-Apr-21 22:30N 51°29' E 000°14'4 7.6
2017-Apr-21 21:59N 51°31' E 000°08'0 0.0
2017-Apr-21 21:29N 51°31' E 000°08'0 0.0
2017-Apr-21 20:59N 51°31' E 000°08'0 0.0
2017-Apr-21 20:29N 51°31' E 000°08'0 0.0
2017-Apr-21 19:56N 51°31' E 000°08'0 0.0
2017-Apr-21 19:29N 51°31' E 000°08'0 0.0
2017-Apr-21 18:56N 51°31' E 000°08'0 0.0
2017-Apr-21 18:26N 51°31' E 000°08'0 0.0
2017-Apr-21 17:59N 51°31' E 000°08'0 0.0
2017-Apr-21 17:29N 51°31' E 000°08'0 0.0
2017-Apr-21 16:56N 51°31' E 000°08'0 0.0
2017-Apr-21 16:26N 51°31' E 000°08'0 0.0
2017-Apr-21 15:59N 51°31' E 000°08'0 0.0
2017-Apr-21 15:29N 51°31' E 000°08'0 0.0
2017-Apr-21 14:59N 51°31' E 000°08'0 0.0
2017-Apr-21 14:26N 51°31' E 000°08'0 0.0
2017-Apr-21 13:26N 51°31' E 000°08'0 0.0
2017-Apr-21 12:56N 51°31' E 000°08'0 0.0
2017-Apr-21 12:29N 51°31' E 000°08'0 0.2
2017-Apr-21 12:00N 51°31' E 000°09'3 5.5
2017-Apr-21 11:31N 51°29' E 000°12'4 7.1
2017-Apr-21 11:01N 51°28' E 000°17'3 5.7
2017-Apr-21 10:31N 51°27' E 000°22'3 6.7
2017-Apr-21 10:01N 51°28' E 000°27'4 8.1
2017-Apr-21 09:30N 51°30' E 000°32'5 9.3
2017-Apr-21 09:00N 51°30' E 000°40'5 9.5
2017-Apr-21 08:30N 51°29' E 000°47'5 9.9
2017-Apr-21 08:00N 51°29' E 000°55'510.2
2017-Apr-21 07:30N 51°30' E 001°03'510.7
2017-Apr-21 07:00N 51°29' E 001°12'510.7
2017-Apr-21 06:30N 51°29' E 001°20'510.9
2017-Apr-21 06:00N 51°27' E 001°29'5 9.2
2017-Apr-21 05:30N 51°24' E 001°34'4 7.2
2017-Apr-21 05:00N 51°23' E 001°40'3 6.9
2017-Apr-21 04:30N 51°24' E 001°45'4 7.8
2017-Apr-21 04:00N 51°27' E 001°50'4 7.5
2017-Apr-21 03:31N 51°26' E 001°56'4 7.5
2017-Apr-21 03:00N 51°25' E 002°01'4 8.0
2017-Apr-21 02:30N 51°23' E 002°07'4 8.2
2017-Apr-21 02:00N 51°21' E 002°13'4 7.9
2017-Apr-21 01:31N 51°21' E 002°19'4 8.5
2017-Apr-21 01:00N 51°22' E 002°26'4 8.6
2017-Apr-21 00:30N 51°23' E 002°33'4 8.0
2017-Apr-21 00:00N 51°23' E 002°39'4 7.4
2017-Apr-20 23:31N 51°22' E 002°45'4 8.6
2017-Apr-20 23:00N 51°23' E 002°52'5 9.6
2017-Apr-20 22:30N 51°24' E 002°59'5 9.4
2017-Apr-20 22:00N 51°24' E 003°07'5 9.8
2017-Apr-20 21:30N 51°25' E 003°14'5 9.5
2017-Apr-20 21:00N 51°25' E 003°22'5 9.6
2017-Apr-20 20:30N 51°25' E 003°30'4 8.6
2017-Apr-20 20:00N 51°26' E 003°36'4 7.4
2017-Apr-20 19:30N 51°25' E 003°42'4 8.7
2017-Apr-20 19:00N 51°22' E 003°46'4 7.8
2017-Apr-20 18:30N 51°21' E 003°52'4 7.7
2017-Apr-20 18:00N 51°24' E 003°57'9 5.6
2017-Apr-20 16:19N 51°24' E 004°12'2 6.9
2017-Apr-20 16:00N 51°22' E 004°13'3 5.4
2017-Apr-20 15:31N 51°21' E 004°17'0 0.0
2017-Apr-20 15:00N 51°21' E 004°17'0 0.2
2017-Apr-20 14:30N 51°21' E 004°17'2 1.7
2017-Apr-20 13:30N 51°19' E 004°19'1 1.1
2017-Apr-20 12:59N 51°19' E 004°19'0 0.0
2017-Apr-20 12:29N 51°19' E 004°19'0 0.0
2017-Apr-20 11:56N 51°19' E 004°19'0 0.0
2017-Apr-20 10:20N 51°19' E 004°19'0 0.0
2017-Apr-20 09:56N 51°19' E 004°19'0 0.0
2017-Apr-20 09:14N 51°19' E 004°19'0 0.0
2017-Apr-20 08:08N 51°19' E 004°19'0 0.0
2017-Apr-20 07:38N 51°19' E 004°19'0 0.0
2017-Apr-20 07:14N 51°19' E 004°19'0 0.0
2017-Apr-20 06:53N 51°19' E 004°19'0 0.0
2017-Apr-20 06:29N 51°19' E 004°19'0 0.0
2017-Apr-20 05:56N 51°19' E 004°19'0 0.0
2017-Apr-20 05:29N 51°19' E 004°19'0 0.0
2017-Apr-20 04:59N 51°19' E 004°19'0 0.0
2017-Apr-20 04:29N 51°19' E 004°19'0 0.0
2017-Apr-20 03:53N 51°19' E 004°19'0 0.0
2017-Apr-20 03:23N 51°19' E 004°19'0 0.0
2017-Apr-20 02:56N 51°19' E 004°19'0 0.0
2017-Apr-20 02:29N 51°19' E 004°19'0 0.0
2017-Apr-20 01:56N 51°19' E 004°19'0 0.0
2017-Apr-20 01:29N 51°19' E 004°19'0 0.0
2017-Apr-20 00:59N 51°19' E 004°19'0 0.0
2017-Apr-20 00:29N 51°19' E 004°19'0 0.0
2017-Apr-19 23:59N 51°19' E 004°19'0 0.0
2017-Apr-19 23:29N 51°19' E 004°19'0 0.0
2017-Apr-19 22:59N 51°19' E 004°19'0 0.0
2017-Apr-19 22:14N 51°19' E 004°19'0 0.0
2017-Apr-19 21:56N 51°19' E 004°19'0 0.0
2017-Apr-19 21:26N 51°19' E 004°19'0 0.0
2017-Apr-19 20:59N 51°19' E 004°19'0 0.1
2017-Apr-19 20:30N 51°19' E 004°19'2 4.6
2017-Apr-19 20:00N 51°21' E 004°17'0 0.0
2017-Apr-19 19:30N 51°21' E 004°17'0 0.3
2017-Apr-19 18:58N 51°21' E 004°17'1 2.3
2017-Apr-19 18:30N 51°21' E 004°15'3 6.0
2017-Apr-19 18:00N 51°24' E 004°12'5 9.3
2017-Apr-19 17:30N 51°22' E 004°06'5 9.9
2017-Apr-19 17:00N 51°26' E 004°00'  
Track history (hours):
 
Tides and Currents Weather Stations Pressure Air Temp Water Temp Dewpoint Dewpoint Depression Visibility Wind Speed Wind Dir Waves Ship Positions

Mt Bomar Mars

Last reported at 2017-Apr-29 08:25 UTC. Time now 2017-Apr-29 09:20 UTC.
Position N 52°46' E 002°11'.

Length 107 m; draft 5.2 m.

Type: Ship. MMSI: 256784000.

Date/timePositionNaut miles runAvg speedWind from/ knotsBaromVisibWave heightAir tempDewpointWater temp
2017-Apr-29 08:25N 52°46' E 002°11'612.4
2017-Apr-29 07:58N 52°50' E 002°05'512.0
2017-Apr-29 07:30N 52°54' E 001°58'611.8
2017-Apr-29 07:01N 52°57' E 001°50'611.2
2017-Apr-29 06:31N 53°01' E 001°43'510.6
2017-Apr-29 06:00N 53°03' E 001°35'510.1
2017-Apr-29 05:30N 53°06' E 001°28'5 9.5
2017-Apr-29 05:01N 53°09' E 001°22'5 9.3
2017-Apr-29 04:30N 53°12' E 001°16'5 9.1
2017-Apr-29 04:00N 53°15' E 001°10'4 8.9
2017-Apr-29 03:30N 53°18' E 001°05'4 8.8
2017-Apr-29 03:00N 53°21' E 000°59'6 8.6
2017-Apr-29 02:16N 53°24' E 000°50'30 9.8
2017-Apr-28 23:09N 53°35' E 000°02'214.2
2017-Apr-28 23:00N 53°35' W 000°01'612.8
2017-Apr-28 22:30N 53°38' W 000°11'0 0.7
2017-Apr-28 21:57N 53°38' W 000°12'0 0.1
2017-Apr-28 21:21N 53°38' W 000°12'0 0.0
2017-Apr-28 20:54N 53°38' W 000°12'0 0.0
2017-Apr-28 20:27N 53°38' W 000°12'0 0.0
2017-Apr-28 20:00N 53°38' W 000°12'0 0.0
2017-Apr-28 19:30N 53°38' W 000°12'0 0.0
2017-Apr-28 18:51N 53°38' W 000°12'0 0.0
2017-Apr-28 18:24N 53°38' W 000°12'0 0.0
2017-Apr-28 17:54N 53°38' W 000°12'0 0.0
2017-Apr-28 17:09N 53°38' W 000°12'0 0.0
2017-Apr-28 16:45N 53°38' W 000°12'0 0.0
2017-Apr-28 16:15N 53°38' W 000°12'0 0.0
2017-Apr-28 16:00N 53°38' W 000°12'0 0.0
2017-Apr-28 15:06N 53°38' W 000°12'0 0.0
2017-Apr-28 14:57N 53°38' W 000°12'0 0.0
2017-Apr-28 14:27N 53°38' W 000°12'0 0.0
2017-Apr-28 05:08N 53°38' W 000°12'0 0.4
2017-Apr-28 04:59N 53°38' W 000°12'0 0.6
2017-Apr-28 04:30N 53°38' W 000°11'2 3.9
2017-Apr-28 04:00N 53°38' W 000°08'612.3
2017-Apr-28 03:30N 53°35' E 000°02'42 6.7
2017-Apr-27 21:11N 53°18' E 001°07'2 8.7
2017-Apr-27 20:57N 53°17' E 001°09'4 8.4
2017-Apr-27 20:30N 53°15' E 001°14'4 7.9
2017-Apr-27 20:00N 53°12' E 001°19'4 7.8
2017-Apr-27 19:30N 53°10' E 001°24'4 7.3
2017-Apr-27 19:00N 53°07' E 001°28'4 7.2
2017-Apr-27 18:30N 53°05' E 001°33'4 7.5
2017-Apr-27 18:00N 53°02' E 001°38'4 7.9
2017-Apr-27 17:30N 53°01' E 001°44'4 8.6
2017-Apr-27 17:00N 52°59' E 001°50'5 9.5
2017-Apr-27 16:30N 52°57' E 001°57'510.2
2017-Apr-27 16:00N 52°54' E 002°04'7610.2
2017-Apr-27 08:31N 51°46' E 003°01'710.1
2017-Apr-27 07:48N 51°44' E 003°13'2 6.9
2017-Apr-27 07:30N 51°43' E 003°15'5 9.3
2017-Apr-27 07:00N 51°39' E 003°20'510.0
2017-Apr-27 06:31N 51°35' E 003°24'510.0
2017-Apr-27 06:00N 51°31' E 003°27'611.2
2017-Apr-27 05:30N 51°27' E 003°34'610.9
2017-Apr-27 04:56N 51°24' E 003°43'512.0
2017-Apr-27 04:30N 51°21' E 003°49'1 1.7
2017-Apr-27 03:57N 51°20' E 003°49'1 1.9
2017-Apr-27 03:30N 51°19' E 003°50'2 0.1
2017-Apr-26 00:33N 51°17' E 003°51'0 0.0
2017-Apr-26 00:30N 51°17' E 003°51'1 2.3
2017-Apr-26 00:00N 51°18' E 003°50'2 4.3
2017-Apr-25 23:30N 51°20' E 003°49'1 1.4
2017-Apr-25 23:00N 51°20' E 003°49'4 5.6
2017-Apr-25 22:22N 51°22' E 003°44'2 6.4
2017-Apr-25 21:59N 51°24' E 003°41'3 6.1
2017-Apr-25 21:30N 51°25' E 003°37'4 7.4
2017-Apr-25 21:00N 51°27' E 003°32'511.0
2017-Apr-25 20:30N 51°31' E 003°26'611.2
2017-Apr-25 19:59N 51°36' E 003°22'10 6.9
2017-Apr-25 18:31N 51°46' E 003°18'0 6.3
2017-Apr-25 18:30N 51°46' E 003°18'0 0.2
2017-Apr-25 17:37N 51°46' E 003°18'0 0.0
2017-Apr-25 16:16N 51°46' E 003°19'0 0.1
2017-Apr-25 15:49N 51°46' E 003°19'0 0.2
2017-Apr-25 15:25N 51°46' E 003°19'0 0.0
2017-Apr-25 14:58N 51°46' E 003°19'0 0.0
2017-Apr-25 13:58N 51°46' E 003°19'0 0.0
2017-Apr-25 13:28N 51°46' E 003°19'0 0.1
2017-Apr-25 12:59N 51°46' E 003°19'0 0.2
2017-Apr-25 12:28N 51°46' E 003°19'1 1.3
2017-Apr-25 11:47N 51°47' E 003°19'1 4.5
2017-Apr-25 11:30N 51°48' E 003°18'0 0.8
2017-Apr-25 10:56N 51°49' E 003°18'1 1.4
2017-Apr-25 10:15N 51°48' E 003°18'0 0.5
2017-Apr-25 09:58N 51°48' E 003°18'0 0.4
2017-Apr-25 09:30N 51°48' E 003°18'0 0.9
2017-Apr-25 09:00N 51°47' E 003°17'0 0.5
2017-Apr-25 08:29N 51°47' E 003°18'0 0.6
2017-Apr-25 07:59N 51°47' E 003°18'1 1.3
2017-Apr-25 07:30N 51°47' E 003°18'1 0.9
2017-Apr-25 06:55N 51°46' E 003°18'0 0.1
2017-Apr-25 04:38N 51°46' E 003°19'0 0.1
2017-Apr-25 04:20N 51°46' E 003°19'0 0.0
2017-Apr-25 03:56N 51°46' E 003°19'0 0.0
2017-Apr-25 03:29N 51°46' E 003°19'0 0.0
2017-Apr-25 02:56N 51°46' E 003°19'0 0.1
2017-Apr-25 02:29N 51°46' E 003°19'0 0.0
2017-Apr-25 01:59N 51°46' E 003°19'0 0.0
2017-Apr-25 01:26N 51°46' E 003°19'0 0.0
2017-Apr-25 00:59N 51°46' E 003°19'0 0.0
2017-Apr-24 22:06N 51°46' E 003°19'0 0.0
2017-Apr-24 21:44N 51°46' E 003°19'0 0.2
2017-Apr-24 21:23N 51°46' E 003°18'0 0.1
2017-Apr-24 20:53N 51°46' E 003°18'0 0.0
2017-Apr-24 20:29N 51°46' E 003°18'0 0.0
2017-Apr-24 19:56N 51°46' E 003°18'0 0.0
2017-Apr-24 18:41N 51°46' E 003°18'0 0.1
2017-Apr-24 18:26N 51°46' E 003°18'0 0.2
2017-Apr-24 17:56N 51°46' E 003°18'0 0.1
2017-Apr-24 17:29N 51°46' E 003°18'0 0.1
2017-Apr-24 16:59N 51°46' E 003°19'0 0.1
2017-Apr-24 16:28N 51°46' E 003°19'0 0.0
2017-Apr-24 16:00N 51°46' E 003°19'0 0.0
2017-Apr-24 15:29N 51°46' E 003°19'0 0.0
2017-Apr-24 14:53N 51°46' E 003°19'0 0.0
2017-Apr-24 14:30N 51°46' E 003°19'0 0.0
2017-Apr-24 13:29N 51°46' E 003°19'0 0.0
2017-Apr-24 13:00N 51°46' E 003°19'0 0.0
2017-Apr-24 12:27N 51°46' E 003°19'1 1.1
2017-Apr-24 11:26N 51°47' E 003°17'73 9.9
2017-Apr-24 04:04N 52°46' E 002°10'111.8
2017-Apr-24 03:58N 52°47' E 002°08'511.4
2017-Apr-24 03:30N 52°51' E 002°03'510.9
2017-Apr-24 03:00N 52°55' E 001°56'510.7
2017-Apr-24 02:30N 52°58' E 001°48'510.4
2017-Apr-24 02:00N 53°00' E 001°41'5 9.9
2017-Apr-24 01:30N 53°03' E 001°34'5 9.6
2017-Apr-24 01:00N 53°06' E 001°28'5 9.3
2017-Apr-24 00:30N 53°09' E 001°22'5 9.2
2017-Apr-24 00:00N 53°12' E 001°16'5 9.2
2017-Apr-23 23:30N 53°15' E 001°10'5 9.2
2017-Apr-23 23:00N 53°18' E 001°04'5 9.0
2017-Apr-23 22:30N 53°21' E 000°58'3810.0
2017-Apr-23 18:41N 53°35' W 000°01'314.0
2017-Apr-23 18:30N 53°37' W 000°05'4 0.2
2017-Apr-23 01:04N 53°38' W 000°11'0 0.8
2017-Apr-23 00:56N 53°38' W 000°11'62 9.4
2017-Apr-22 18:18N 53°10' E 001°22'2 8.3
2017-Apr-22 18:00N 53°08' E 001°25'4 8.1
2017-Apr-22 17:31N 53°06' E 001°30'4 7.6
2017-Apr-22 17:00N 53°03' E 001°35'4 7.6
2017-Apr-22 16:31N 53°01' E 001°41'4 7.5
2017-Apr-22 16:00N 52°60' E 001°46'4 7.5
2017-Apr-22 15:30N 52°58' E 001°52'83 8.3
2017-Apr-22 05:31N 51°35' E 001°56'4 8.3
2017-Apr-22 05:01N 51°33' E 001°50'4 8.2
2017-Apr-22 04:30N 51°31' E 001°44'4 8.1
2017-Apr-22 04:01N 51°29' E 001°38'4 8.3
2017-Apr-22 03:30N 51°27' E 001°32'11 9.1
2017-Apr-22 02:17N 51°29' E 001°15'310.3
2017-Apr-22 02:01N 51°29' E 001°10'1510.8
2017-Apr-22 00:37N 51°29' E 000°46'111.8
2017-Apr-22 00:30N 51°30' E 000°44'611.9
2017-Apr-22 00:01N 51°30' E 000°34'510.5
2017-Apr-21 23:31N 51°28' E 000°27'5 9.1
2017-Apr-21 23:00N 51°27' E 000°20'4 7.7
2017-Apr-21 22:30N 51°29' E 000°14'4 7.6
2017-Apr-21 21:59N 51°31' E 000°08'0 0.0
2017-Apr-21 21:29N 51°31' E 000°08'0 0.0
2017-Apr-21 20:59N 51°31' E 000°08'0 0.0
2017-Apr-21 20:29N 51°31' E 000°08'0 0.0
2017-Apr-21 19:56N 51°31' E 000°08'0 0.0
2017-Apr-21 19:29N 51°31' E 000°08'0 0.0
2017-Apr-21 18:56N 51°31' E 000°08'0 0.0
2017-Apr-21 18:26N 51°31' E 000°08'0 0.0
2017-Apr-21 17:59N 51°31' E 000°08'0 0.0
2017-Apr-21 17:29N 51°31' E 000°08'0 0.0
2017-Apr-21 16:56N 51°31' E 000°08'0 0.0
2017-Apr-21 16:26N 51°31' E 000°08'0 0.0
2017-Apr-21 15:59N 51°31' E 000°08'0 0.0
2017-Apr-21 15:29N 51°31' E 000°08'0 0.0
2017-Apr-21 14:59N 51°31' E 000°08'0 0.0
2017-Apr-21 14:26N 51°31' E 000°08'0 0.0
2017-Apr-21 13:26N 51°31' E 000°08'0 0.0
2017-Apr-21 12:56N 51°31' E 000°08'0 0.0
2017-Apr-21 12:29N 51°31' E 000°08'0 0.2
2017-Apr-21 12:00N 51°31' E 000°09'3 5.5
2017-Apr-21 11:31N 51°29' E 000°12'4 7.1
2017-Apr-21 11:01N 51°28' E 000°17'3 5.7
2017-Apr-21 10:31N 51°27' E 000°22'3 6.7
2017-Apr-21 10:01N 51°28' E 000°27'4 8.1
2017-Apr-21 09:30N 51°30' E 000°32'5 9.3
2017-Apr-21 09:00N 51°30' E 000°40'5 9.5
2017-Apr-21 08:30N 51°29' E 000°47'5 9.9
2017-Apr-21 08:00N 51°29' E 000°55'510.2
2017-Apr-21 07:30N 51°30' E 001°03'510.7
2017-Apr-21 07:00N 51°29' E 001°12'510.7
2017-Apr-21 06:30N 51°29' E 001°20'510.9
2017-Apr-21 06:00N 51°27' E 001°29'5 9.2
2017-Apr-21 05:30N 51°24' E 001°34'4 7.2
2017-Apr-21 05:00N 51°23' E 001°40'3 6.9
2017-Apr-21 04:30N 51°24' E 001°45'4 7.8
2017-Apr-21 04:00N 51°27' E 001°50'4 7.5
2017-Apr-21 03:31N 51°26' E 001°56'4 7.5
2017-Apr-21 03:00N 51°25' E 002°01'4 8.0
2017-Apr-21 02:30N 51°23' E 002°07'4 8.2
2017-Apr-21 02:00N 51°21' E 002°13'4 7.9
2017-Apr-21 01:31N 51°21' E 002°19'4 8.5
2017-Apr-21 01:00N 51°22' E 002°26'4 8.6
2017-Apr-21 00:30N 51°23' E 002°33'4 8.0
2017-Apr-21 00:00N 51°23' E 002°39'4 7.4
2017-Apr-20 23:31N 51°22' E 002°45'4 8.6
2017-Apr-20 23:00N 51°23' E 002°52'5 9.6
2017-Apr-20 22:30N 51°24' E 002°59'5 9.4
2017-Apr-20 22:00N 51°24' E 003°07'5 9.8
2017-Apr-20 21:30N 51°25' E 003°14'5 9.5
2017-Apr-20 21:00N 51°25' E 003°22'5 9.6
2017-Apr-20 20:30N 51°25' E 003°30'4 8.6
2017-Apr-20 20:00N 51°26' E 003°36'4 7.4
2017-Apr-20 19:30N 51°25' E 003°42'4 8.7
2017-Apr-20 19:00N 51°22' E 003°46'4 7.8
2017-Apr-20 18:30N 51°21' E 003°52'4 7.7
2017-Apr-20 18:00N 51°24' E 003°57'9 5.6
2017-Apr-20 16:19N 51°24' E 004°12'2 6.9
2017-Apr-20 16:00N 51°22' E 004°13'3 5.4
2017-Apr-20 15:31N 51°21' E 004°17'0 0.0
2017-Apr-20 15:00N 51°21' E 004°17'0 0.2
2017-Apr-20 14:30N 51°21' E 004°17'2 1.7
2017-Apr-20 13:30N 51°19' E 004°19'1 1.1
2017-Apr-20 12:59N 51°19' E 004°19'0 0.0
2017-Apr-20 12:29N 51°19' E 004°19'0 0.0
2017-Apr-20 11:56N 51°19' E 004°19'0 0.0
2017-Apr-20 10:20N 51°19' E 004°19'0 0.0
2017-Apr-20 09:56N 51°19' E 004°19'0 0.0
2017-Apr-20 09:14N 51°19' E 004°19'0 0.0
2017-Apr-20 08:08N 51°19' E 004°19'0 0.0
2017-Apr-20 07:38N 51°19' E 004°19'0 0.0
2017-Apr-20 07:14N 51°19' E 004°19'0 0.0
2017-Apr-20 06:53N 51°19' E 004°19'0 0.0
2017-Apr-20 06:29N 51°19' E 004°19'0 0.0
2017-Apr-20 05:56N 51°19' E 004°19'0 0.0
2017-Apr-20 05:29N 51°19' E 004°19'0 0.0
2017-Apr-20 04:59N 51°19' E 004°19'0 0.0
2017-Apr-20 04:29N 51°19' E 004°19'0 0.0
2017-Apr-20 03:53N 51°19' E 004°19'0 0.0
2017-Apr-20 03:23N 51°19' E 004°19'0 0.0
2017-Apr-20 02:56N 51°19' E 004°19'0 0.0
2017-Apr-20 02:29N 51°19' E 004°19'0 0.0
2017-Apr-20 01:56N 51°19' E 004°19'0 0.0
2017-Apr-20 01:29N 51°19' E 004°19'0 0.0
2017-Apr-20 00:59N 51°19' E 004°19'0 0.0
2017-Apr-20 00:29N 51°19' E 004°19'0 0.0
2017-Apr-19 23:59N 51°19' E 004°19'0 0.0
2017-Apr-19 23:29N 51°19' E 004°19'0 0.0
2017-Apr-19 22:59N 51°19' E 004°19'0 0.0
2017-Apr-19 22:14N 51°19' E 004°19'0 0.0
2017-Apr-19 21:56N 51°19' E 004°19'0 0.0
2017-Apr-19 21:26N 51°19' E 004°19'0 0.0
2017-Apr-19 20:59N 51°19' E 004°19'0 0.1
2017-Apr-19 20:30N 51°19' E 004°19'2 4.6
2017-Apr-19 20:00N 51°21' E 004°17'0 0.0
2017-Apr-19 19:30N 51°21' E 004°17'0 0.3
2017-Apr-19 18:58N 51°21' E 004°17'1 2.3
2017-Apr-19 18:30N 51°21' E 004°15'3 6.0
2017-Apr-19 18:00N 51°24' E 004°12'5 9.3
2017-Apr-19 17:30N 51°22' E 004°06'5 9.9
2017-Apr-19 17:00N 51°26' E 004°00'  

Dump ship's entire track history